Time;durP1;ratioP1;P1;durP2;ratioP2;P2;SDS_P1;SDS_P2;PMS_P1;PMS_P2;Temp;Humidity;BMP_temperature;BMP_pressure;BME280_temperature;BME280_humidity;BME280_pressure;Samples;Min_cycle;Max_cycle;Signal;HPM_P1;HPM_P2
2021/12/25 00:00:59;;;;;;;25.45;10.50;;;7.70;99.90;;;;;;4951101;29;20035;-70
2021/12/25 00:03:25;;;;;;;22.05;9.35;;;7.70;99.90;;;;;;4944738;29;20542;-70
2021/12/25 00:05:54;;;;;;;18.73;8.90;;;7.70;99.90;;;;;;4944974;29;20031;-70
2021/12/25 00:08:22;;;;;;;22.00;9.30;;;7.70;99.90;;;;;;4949839;29;20743;-70
2021/12/25 00:10:48;;;;;;;18.17;8.85;;;7.70;99.90;;;;;;4950774;29;20019;-70
2021/12/25 00:13:14;;;;;;;20.98;9.13;;;7.70;99.90;;;;;;4950578;29;20035;-70
2021/12/25 00:15:41;;;;;;;17.38;8.38;;;7.70;99.90;;;;;;4951296;29;20491;-70
2021/12/25 00:18:08;;;;;;;19.05;9.20;;;7.70;99.90;;;;;;4948901;29;20031;-70
2021/12/25 00:20:34;;;;;;;17.88;8.77;;;7.70;99.90;;;;;;4950498;29;20138;-70
2021/12/25 00:23:00;;;;;;;18.70;9.35;;;7.70;99.90;;;;;;4950468;29;20126;-70
2021/12/25 00:25:27;;;;;;;19.15;8.43;;;7.70;99.90;;;;;;4948123;29;20040;-70
2021/12/25 00:28:21;;;;;;;18.52;8.38;;;7.70;99.90;;;;;;4949832;29;20035;-70
2021/12/25 00:30:47;;;;;;;21.13;9.00;;;7.70;99.90;;;;;;4951023;28;20043;-71
2021/12/25 00:33:35;;;;;;;17.65;8.55;;;7.70;99.90;;;;;;4949038;29;20550;-71
2021/12/25 00:36:02;;;;;;;16.98;7.57;;;7.70;99.90;;;;;;4950579;29;20210;-70
2021/12/25 00:38:28;;;;;;;14.43;7.22;;;7.60;99.90;;;;;;4950612;29;20038;-71
2021/12/25 00:40:53;;;;;;;18.73;8.55;;;7.60;99.90;;;;;;4950851;29;20031;-71
2021/12/25 00:43:19;;;;;;;18.60;7.88;;;7.60;99.90;;;;;;4949974;29;20395;-71
2021/12/25 00:45:45;;;;;;;19.85;8.90;;;7.70;99.90;;;;;;4949572;29;20035;-71
2021/12/25 00:48:10;;;;;;;149.43;13.20;;;7.70;99.90;;;;;;4949671;29;20038;-71
2021/12/25 00:50:36;;;;;;;128.45;12.90;;;7.70;99.90;;;;;;4950993;29;20039;-71
2021/12/25 00:53:02;;;;;;;21.17;10.07;;;7.60;99.90;;;;;;4950154;29;20031;-71
2021/12/25 00:55:27;;;;;;;22.50;9.48;;;7.60;99.90;;;;;;4949840;29;20050;-71
2021/12/25 00:57:53;;;;;;;20.73;9.02;;;7.60;99.90;;;;;;4949123;29;20033;-71
2021/12/25 01:00:19;;;;;;;19.45;8.98;;;7.60;99.90;;;;;;4949611;29;20086;-71
2021/12/25 01:02:46;;;;;;;24.30;9.98;;;7.60;99.90;;;;;;4949091;29;20031;-71
2021/12/25 01:05:14;;;;;;;23.38;9.38;;;7.70;99.90;;;;;;4949856;29;20106;-71
2021/12/25 01:07:40;;;;;;;18.85;8.45;;;7.70;99.90;;;;;;4948853;29;20141;-71
2021/12/25 01:10:09;;;;;;;20.42;9.05;;;7.70;99.90;;;;;;4948689;29;20038;-71
2021/12/25 01:12:55;;;;;;;21.73;8.98;;;7.70;99.90;;;;;;4955941;28;20050;-71
2021/12/25 01:15:27;;;;;;;20.25;9.00;;;7.70;99.90;;;;;;4950368;28;20122;-71
2021/12/25 01:20:43;;;;;;;22.17;9.27;;;7.70;99.90;;;;;;4949639;29;20034;-71
2021/12/25 01:31:12;;;;;;;21.92;8.95;;;7.70;99.90;;;;;;4950424;29;20038;-71
2021/12/25 01:36:37;;;;;;;20.10;8.68;;;7.70;99.90;;;;;;4948881;29;20431;-71
2021/12/25 01:39:15;;;;;;;22.90;8.60;;;7.70;99.90;;;;;;4944382;29;20024;-70
2021/12/25 01:49:39;;;;;;;65.45;9.32;;;7.50;99.90;;;;;;4948527;29;20412;-71
2021/12/25 01:52:06;;;;;;;15.90;7.05;;;7.60;99.90;;;;;;4953476;29;20093;-71
2021/12/25 01:54:33;;;;;;;30.02;7.97;;;7.50;99.90;;;;;;4953534;29;20039;-71
2021/12/25 01:56:58;;;;;;;46.10;7.88;;;7.50;99.90;;;;;;4953607;29;20027;-71
2021/12/25 01:59:24;;;;;;;127.40;8.68;;;7.50;99.90;;;;;;4950841;29;20254;-71
2021/12/25 02:01:50;;;;;;;62.85;8.02;;;7.50;99.90;;;;;;4953463;29;20027;-71
2021/12/25 02:04:16;;;;;;;141.40;10.32;;;7.40;99.90;;;;;;4953115;29;20050;-71
2021/12/25 02:06:42;;;;;;;129.38;10.60;;;7.50;99.90;;;;;;4952405;29;20028;-70
2021/12/25 02:09:08;;;;;;;29.48;8.32;;;7.40;99.90;;;;;;4952269;29;20484;-70
2021/12/25 02:11:33;;;;;;;28.40;8.90;;;7.50;99.90;;;;;;4952004;29;20070;-70
2021/12/25 02:13:59;;;;;;;28.92;8.50;;;7.40;99.90;;;;;;4952239;29;20054;-70
2021/12/25 02:16:30;;;;;;;20.10;8.73;;;7.50;99.90;;;;;;4952010;29;20138;-71
2021/12/25 02:19:04;;;;;;;21.73;8.90;;;7.50;99.90;;;;;;4952791;28;20695;-70
2021/12/25 02:21:35;;;;;;;40.97;9.13;;;7.50;99.90;;;;;;4950562;29;20031;-70
2021/12/25 02:24:03;;;;;;;43.97;9.50;;;7.50;99.90;;;;;;4951989;29;20047;-71
2021/12/25 02:26:29;;;;;;;109.03;10.82;;;7.50;99.90;;;;;;4951762;29;20054;-70
2021/12/25 02:28:55;;;;;;;48.38;9.27;;;7.60;99.90;;;;;;4952135;29;20138;-70
2021/12/25 02:31:22;;;;;;;339.85;14.07;;;7.60;99.90;;;;;;4951127;29;20107;-70
2021/12/25 02:33:48;;;;;;;109.50;9.20;;;7.60;99.90;;;;;;4952412;28;20038;-70
2021/12/25 02:36:14;;;;;;;107.43;9.02;;;7.60;99.90;;;;;;4950529;29;20039;-70
2021/12/25 02:38:41;;;;;;;23.98;8.95;;;7.60;99.90;;;;;;4953197;29;20465;-70
2021/12/25 02:41:07;;;;;;;18.33;7.78;;;7.60;99.90;;;;;;4951511;29;20035;-70
2021/12/25 02:43:33;;;;;;;19.05;8.30;;;7.50;99.90;;;;;;4951949;29;20122;-70
2021/12/25 02:46:03;;;;;;;19.52;8.05;;;7.50;99.90;;;;;;4966731;28;20073;-70
2021/12/25 02:48:31;;;;;;;21.17;7.60;;;7.50;99.90;;;;;;4951167;29;20034;-70
2021/12/25 02:50:57;;;;;;;18.55;7.85;;;7.50;99.90;;;;;;4952249;29;20058;-70
2021/12/25 02:53:23;;;;;;;17.88;8.15;;;7.50;99.90;;;;;;4951991;29;20038;-70
2021/12/25 02:55:49;;;;;;;17.27;8.02;;;7.40;99.90;;;;;;4952455;28;20077;-70
2021/12/25 02:58:15;;;;;;;28.95;8.40;;;7.40;99.90;;;;;;4950714;29;20059;-70
2021/12/25 03:01:19;;;;;;;18.08;7.65;;;7.40;99.90;;;;;;4950312;29;20479;-70
2021/12/25 03:03:45;;;;;;;14.75;6.93;;;7.40;99.90;;;;;;4951824;29;20054;-70
2021/12/25 03:06:12;;;;;;;19.05;7.63;;;7.40;99.90;;;;;;4951733;29;20027;-70
2021/12/25 03:08:39;;;;;;;14.40;6.57;;;7.30;99.90;;;;;;4951519;29;20178;-70
2021/12/25 03:11:07;;;;;;;17.50;7.32;;;7.30;99.90;;;;;;4951723;29;20042;-70
2021/12/25 03:13:42;;;;;;;17.63;7.78;;;7.30;99.90;;;;;;4950083;29;20035;-70
2021/12/25 03:16:08;;;;;;;13.95;6.65;;;7.30;99.90;;;;;;4950741;29;20059;-71
2021/12/25 03:18:43;;;;;;;14.98;6.75;;;7.30;99.90;;;;;;4941619;29;20039;-71
2021/12/25 03:21:09;;;;;;;15.95;7.03;;;7.30;99.90;;;;;;4935616;29;20031;-70
2021/12/25 03:23:36;;;;;;;15.55;7.25;;;7.40;99.90;;;;;;4949482;29;20142;-71
2021/12/25 03:26:05;;;;;;;31.33;7.95;;;7.40;99.90;;;;;;4952059;29;20058;-70
2021/12/25 03:28:33;;;;;;;56.63;6.97;;;7.40;99.90;;;;;;4950281;28;20019;-71
2021/12/25 03:31:04;;;;;;;465.77;15.43;;;7.40;99.90;;;;;;4951923;29;20042;-71
2021/12/25 03:33:30;;;;;;;49.55;6.00;;;7.30;99.90;;;;;;4951263;29;20046;-70
2021/12/25 03:35:56;;;;;;;56.92;6.50;;;7.30;99.90;;;;;;4951531;29;20035;-71
2021/12/25 03:38:23;;;;;;;46.13;5.57;;;7.30;99.90;;;;;;4946943;29;20055;-70
2021/12/25 03:40:50;;;;;;;42.67;5.85;;;7.20;99.90;;;;;;4951163;29;20042;-70
2021/12/25 03:43:17;;;;;;;48.78;5.60;;;7.20;99.90;;;;;;4950090;28;20496;-71
2021/12/25 03:45:43;;;;;;;18.60;4.75;;;7.30;99.90;;;;;;4951142;29;20486;-70
2021/12/25 03:59:00;;;;;;;11.98;4.63;;;7.10;99.90;;;;;;4951165;29;20121;-71
2021/12/25 04:04:12;;;;;;;9.65;4.90;;;7.10;99.90;;;;;;4950210;29;20599;-71
2021/12/25 04:06:46;;;;;;;10.63;5.03;;;7.10;99.90;;;;;;4948938;28;20468;-71
2021/12/25 04:09:25;;;;;;;12.25;5.57;;;7.10;99.90;;;;;;4951313;29;20078;-71
2021/12/25 04:11:53;;;;;;;12.68;5.50;;;7.20;99.90;;;;;;4949774;29;20038;-71
2021/12/25 04:14:18;;;;;;;13.20;5.38;;;7.20;99.90;;;;;;4950532;29;20046;-71
2021/12/25 04:16:44;;;;;;;10.73;5.15;;;7.20;99.90;;;;;;4950561;29;20035;-71
2021/12/25 04:19:10;;;;;;;10.20;4.90;;;7.30;99.90;;;;;;4950874;29;20529;-71
2021/12/25 04:21:40;;;;;;;13.07;5.40;;;7.20;99.90;;;;;;4950106;29;20041;-70
2021/12/25 04:24:06;;;;;;;24.88;6.82;;;7.20;99.90;;;;;;4951187;29;20039;-71
2021/12/25 04:26:32;;;;;;;12.77;6.45;;;7.30;99.90;;;;;;4950185;29;20123;-70
2021/12/25 05:04:08;;;;;;;15.65;6.75;;;7.40;99.90;;;;;;4945619;29;20066;-68
2021/12/25 05:06:33;;;;;;;17.05;7.00;;;7.50;99.90;;;;;;4949056;29;20055;-68
2021/12/25 05:08:59;;;;;;;17.70;7.50;;;7.40;99.90;;;;;;4949695;29;20062;-68
2021/12/25 05:11:25;;;;;;;20.40;8.57;;;7.50;99.90;;;;;;4948204;29;20041;-67
2021/12/25 05:13:50;;;;;;;18.98;8.55;;;7.50;99.90;;;;;;4950961;28;20047;-66
2021/12/25 05:16:20;;;;;;;16.33;7.53;;;7.50;99.90;;;;;;4948637;29;20038;-64
2021/12/25 05:18:46;;;;;;;16.38;7.57;;;7.50;99.90;;;;;;4951379;28;20049;-66
2021/12/25 05:21:13;;;;;;;17.55;7.25;;;7.50;99.90;;;;;;4953540;29;20031;-66
2021/12/25 05:23:39;;;;;;;17.75;8.23;;;7.50;99.90;;;;;;4952888;29;20131;-67
2021/12/25 05:26:05;;;;;;;17.08;8.18;;;7.50;99.90;;;;;;4953046;28;20424;-67
2021/12/25 05:28:40;;;;;;;19.15;7.93;;;7.50;99.90;;;;;;4952738;28;20059;-66
2021/12/25 05:31:06;;;;;;;17.90;7.88;;;7.50;99.90;;;;;;4953243;28;20031;-66
2021/12/25 05:33:32;;;;;;;19.58;8.35;;;7.50;99.90;;;;;;4952753;28;20043;-67
2021/12/25 05:35:58;;;;;;;21.30;9.15;;;7.60;99.90;;;;;;4952941;29;20534;-67
2021/12/25 05:38:24;;;;;;;20.92;8.45;;;7.60;99.90;;;;;;4952085;28;20035;-67
2021/12/25 05:40:50;;;;;;;22.83;8.60;;;7.60;99.90;;;;;;4952559;29;20730;-68
2021/12/25 05:43:17;;;;;;;19.13;8.80;;;7.60;99.90;;;;;;4953664;29;20049;-66
2021/12/25 05:45:44;;;;;;;21.90;9.10;;;7.50;99.90;;;;;;4946417;28;20070;-68
2021/12/25 05:48:11;;;;;;;20.05;8.60;;;7.60;99.90;;;;;;4949986;29;20063;-65
2021/12/25 05:50:39;;;;;;;20.30;9.25;;;7.60;99.90;;;;;;4951527;29;20039;-68
2021/12/25 05:53:06;;;;;;;21.65;8.90;;;7.60;99.90;;;;;;4950601;29;20042;-69
2021/12/25 05:55:32;;;;;;;21.13;8.13;;;7.50;99.90;;;;;;4951417;29;20117;-68
2021/12/25 05:57:59;;;;;;;18.17;8.77;;;7.50;99.90;;;;;;4952087;29;20019;-68
2021/12/25 06:00:25;;;;;;;18.85;8.18;;;7.50;99.90;;;;;;4952042;29;20030;-69
2021/12/25 06:02:52;;;;;;;19.15;8.65;;;7.50;99.90;;;;;;4952319;29;20062;-70
2021/12/25 06:05:18;;;;;;;15.95;7.53;;;7.60;99.90;;;;;;4952012;29;20027;-68
2021/12/25 06:07:44;;;;;;;19.60;8.13;;;7.50;99.90;;;;;;4953245;29;20035;-68
2021/12/25 06:10:11;;;;;;;18.05;7.60;;;7.60;99.90;;;;;;4952489;29;20369;-68
2021/12/25 06:12:38;;;;;;;15.57;7.20;;;7.60;99.90;;;;;;4952948;28;20035;-68
2021/12/25 06:15:12;;;;;;;16.90;7.10;;;7.50;99.90;;;;;;4952820;29;20467;-66
2021/12/25 06:17:39;;;;;;;15.88;6.82;;;7.50;99.90;;;;;;4950974;29;20032;-67
2021/12/25 06:20:07;;;;;;;15.32;6.85;;;7.60;99.90;;;;;;4953467;29;20139;-68
2021/12/25 06:22:32;;;;;;;14.50;6.57;;;7.60;99.90;;;;;;4952340;29;20071;-68
2021/12/25 06:24:58;;;;;;;13.05;5.75;;;7.50;99.90;;;;;;4953064;29;20043;-67
2021/12/25 06:27:24;;;;;;;13.80;5.72;;;7.50;99.90;;;;;;4952391;28;20118;-64
2021/12/25 06:29:51;;;;;;;9.93;4.85;;;7.50;99.90;;;;;;4952470;28;20043;-67
2021/12/25 06:32:18;;;;;;;11.32;4.32;;;7.40;99.90;;;;;;4952131;29;20046;-68
2021/12/25 06:34:44;;;;;;;11.60;4.88;;;7.50;99.90;;;;;;4957927;28;20619;-68
2021/12/25 06:37:10;;;;;;;11.70;5.00;;;7.50;99.90;;;;;;4952877;29;20046;-66
2021/12/25 06:39:36;;;;;;;12.35;5.45;;;7.50;99.90;;;;;;4951944;29;20073;-67
2021/12/25 06:42:02;;;;;;;11.45;5.07;;;7.50;99.90;;;;;;4952341;29;20484;-67
2021/12/25 06:44:29;;;;;;;9.63;5.10;;;7.50;99.90;;;;;;4951469;29;20043;-67
2021/12/25 06:46:56;;;;;;;11.23;4.82;;;7.50;99.90;;;;;;4952461;29;20130;-67
2021/12/25 06:49:22;;;;;;;9.32;4.70;;;7.50;99.90;;;;;;4952376;29;20038;-66
2021/12/25 06:51:49;;;;;;;12.13;5.43;;;7.50;99.90;;;;;;4950789;29;20035;-67
2021/12/25 06:54:15;;;;;;;14.10;6.18;;;7.40;99.90;;;;;;4952659;29;20089;-68
2021/12/25 06:56:43;;;;;;;14.77;6.03;;;7.40;99.90;;;;;;4951609;29;20031;-67
2021/12/25 06:59:10;;;;;;;13.63;6.38;;;7.40;99.90;;;;;;4951201;29;20035;-67
2021/12/25 07:01:36;;;;;;;13.63;6.15;;;7.40;99.90;;;;;;4950495;29;20404;-67
2021/12/25 07:04:03;;;;;;;12.93;5.95;;;7.30;99.90;;;;;;4948788;29;20495;-67
2021/12/25 07:06:29;;;;;;;13.70;6.20;;;7.30;99.90;;;;;;4944143;29;20035;-67
2021/12/25 07:08:54;;;;;;;13.00;6.18;;;7.40;99.90;;;;;;4952138;29;20047;-68
2021/12/25 07:11:21;;;;;;;12.40;5.88;;;7.40;99.90;;;;;;4952050;28;20076;-67
2021/12/25 07:13:48;;;;;;;15.23;6.57;;;7.40;99.90;;;;;;4949411;28;20027;-67
2021/12/25 07:16:14;;;;;;;13.10;6.03;;;7.40;99.90;;;;;;4952446;28;20476;-68
2021/12/25 07:18:40;;;;;;;12.90;5.80;;;7.30;99.90;;;;;;4950717;29;20042;-67
2021/12/25 07:21:05;;;;;;;14.38;6.82;;;7.40;99.90;;;;;;4952537;28;20110;-67
2021/12/25 07:23:32;;;;;;;14.60;6.68;;;7.40;99.90;;;;;;4943512;29;20130;-67
2021/12/25 07:25:59;;;;;;;16.50;7.07;;;7.40;99.90;;;;;;4935747;29;20027;-67
2021/12/25 07:28:25;;;;;;;15.60;6.70;;;7.40;99.90;;;;;;4940740;29;20066;-63
2021/12/25 07:30:51;;;;;;;14.82;7.15;;;7.40;99.90;;;;;;4939706;29;20027;-67
2021/12/25 07:33:20;;;;;;;15.63;7.05;;;7.40;99.90;;;;;;4943040;29;20550;-68
2021/12/25 07:35:45;;;;;;;15.73;7.10;;;7.40;99.90;;;;;;4938037;29;20028;-68
2021/12/25 07:38:11;;;;;;;14.13;6.30;;;7.40;99.90;;;;;;4927390;29;20212;-66
2021/12/25 07:40:37;;;;;;;15.40;7.25;;;7.40;99.90;;;;;;4932148;29;20110;-67
2021/12/25 07:43:03;;;;;;;14.07;6.65;;;7.40;99.90;;;;;;4923990;29;20036;-67
2021/12/25 07:45:29;;;;;;;18.27;8.25;;;7.40;99.90;;;;;;4931038;29;20042;-63
2021/12/25 07:48:00;;;;;;;17.52;7.75;;;7.40;99.90;;;;;;4914862;29;20023;-63
2021/12/25 07:50:28;;;;;;;17.10;7.63;;;7.40;99.90;;;;;;4917832;29;20035;-65
2021/12/25 07:52:54;;;;;;;22.13;7.47;;;7.40;99.90;;;;;;4923192;29;20038;-76
2021/12/25 07:55:19;;;;;;;16.52;8.05;;;7.40;99.90;;;;;;4931242;29;20400;-71
2021/12/25 07:57:46;;;;;;;16.08;7.65;;;7.40;99.90;;;;;;4931859;29;20031;-75
2021/12/25 08:00:13;;;;;;;18.42;8.80;;;7.40;99.90;;;;;;4931965;29;20028;-73
2021/12/25 08:02:41;;;;;;;22.58;9.48;;;7.40;99.90;;;;;;4914859;29;20032;-75
2021/12/25 08:05:07;;;;;;;21.42;9.15;;;7.40;99.90;;;;;;4913456;29;20051;-74
2021/12/25 08:07:33;;;;;;;21.77;9.98;;;7.50;99.90;;;;;;4927088;29;20030;-75
2021/12/25 08:10:11;;;;;;;20.80;9.38;;;7.60;99.90;;;;;;4931973;29;20118;-74
2021/12/25 08:12:44;;;;;;;24.63;10.02;;;7.60;99.90;;;;;;4930086;29;20032;-73
2021/12/25 08:15:11;;;;;;;22.05;9.35;;;7.70;99.90;;;;;;4931392;29;20159;-75
2021/12/25 08:17:37;;;;;;;23.00;9.20;;;7.70;99.90;;;;;;4930315;29;20027;-75
2021/12/25 08:20:04;;;;;;;20.42;8.35;;;7.80;99.90;;;;;;4929955;29;20032;-75
2021/12/25 08:22:30;;;;;;;21.95;9.25;;;7.80;99.90;;;;;;4940594;29;20055;-67
2021/12/25 08:24:55;;;;;;;21.60;9.20;;;7.80;99.90;;;;;;4951343;29;20055;-72
2021/12/25 08:27:21;;;;;;;18.83;8.85;;;7.80;99.90;;;;;;4948992;29;20039;-74
2021/12/25 08:29:47;;;;;;;19.17;9.27;;;7.80;99.90;;;;;;4948594;29;20871;-74
2021/12/25 08:32:12;;;;;;;24.83;9.63;;;7.80;99.90;;;;;;4950221;29;20473;-73
2021/12/25 08:34:38;;;;;;;26.17;9.52;;;7.80;99.90;;;;;;4948814;29;20439;-70
2021/12/25 08:37:05;;;;;;;20.90;8.98;;;7.90;99.90;;;;;;4967730;28;20465;-75
2021/12/25 08:39:31;;;;;;;19.67;8.88;;;7.80;99.90;;;;;;4949621;28;20439;-67
2021/12/25 08:42:01;;;;;;;24.63;9.27;;;7.80;99.90;;;;;;4951303;28;20115;-74
2021/12/25 08:44:37;;;;;;;;;;;7.90;99.90;;;;;;4950934;28;20472;-74
2021/12/25 08:47:06;;;;;;;20.40;8.93;;;7.80;99.90;;;;;;4934258;29;20040;-75
2021/12/25 08:49:34;;;;;;;19.90;8.63;;;7.90;99.90;;;;;;4948257;28;20038;-66
2021/12/25 08:52:06;;;;;;;21.73;8.77;;;7.90;99.90;;;;;;4949958;29;20078;-71
2021/12/25 08:54:34;;;;;;;19.75;8.25;;;7.90;99.90;;;;;;4951767;28;20050;-67
2021/12/25 08:57:01;;;;;;;20.45;8.82;;;7.90;99.90;;;;;;4954963;29;20432;-72
2021/12/25 08:59:27;;;;;;;19.08;8.40;;;7.90;99.90;;;;;;4969279;28;20043;-72
2021/12/25 09:01:54;;;;;;;18.50;7.70;;;7.90;99.90;;;;;;4952465;29;20098;-74
2021/12/25 09:04:20;;;;;;;19.40;8.05;;;7.90;99.90;;;;;;4953404;29;20070;-74
2021/12/25 09:06:46;;;;;;;19.83;8.07;;;7.90;99.90;;;;;;4953608;29;20035;-74
2021/12/25 09:09:11;;;;;;;20.52;8.00;;;7.90;99.90;;;;;;4954752;29;20058;-73
2021/12/25 09:11:38;;;;;;;22.80;7.28;;;7.90;99.90;;;;;;4953892;29;20082;-73
2021/12/25 09:14:04;;;;;;;15.98;6.32;;;7.90;99.90;;;;;;4937498;29;20126;-74
2021/12/25 09:16:30;;;;;;;17.30;6.95;;;8.00;99.90;;;;;;4969433;28;20190;-68
2021/12/25 09:18:56;;;;;;;13.38;6.20;;;8.10;99.90;;;;;;4953164;29;20098;-74
2021/12/25 09:21:22;;;;;;;16.83;6.25;;;8.00;99.90;;;;;;4954027;29;20086;-73
2021/12/25 09:23:48;;;;;;;16.20;6.88;;;8.10;99.90;;;;;;4953661;29;20118;-73
2021/12/25 09:26:15;;;;;;;14.77;6.22;;;8.10;99.90;;;;;;4954219;29;20039;-75
2021/12/25 09:28:41;;;;;;;13.40;6.00;;;8.20;99.90;;;;;;4953610;29;20028;-71
2021/12/25 09:31:07;;;;;;;12.88;5.72;;;8.20;99.90;;;;;;4953471;29;20035;-74
2021/12/25 09:33:33;;;;;;;12.52;5.50;;;8.20;99.90;;;;;;4954202;29;20472;-66
2021/12/25 09:36:02;;;;;;;14.77;5.45;;;8.20;99.90;;;;;;4954193;29;20031;-75
2021/12/25 09:38:29;;;;;;;14.70;6.28;;;8.20;99.90;;;;;;4954457;28;20054;-74
2021/12/25 09:40:56;;;;;;;11.88;6.25;;;8.20;99.90;;;;;;4953040;29;20647;-75
2021/12/25 09:43:22;;;;;;;15.88;6.20;;;8.30;99.90;;;;;;4954369;29;20039;-74
2021/12/25 09:45:48;;;;;;;11.07;5.30;;;8.30;99.90;;;;;;4953621;29;20042;-74
2021/12/25 09:48:14;;;;;;;9.15;4.57;;;8.20;99.90;;;;;;4954066;29;20035;-74
2021/12/25 09:50:39;;;;;;;13.52;4.75;;;8.20;99.90;;;;;;4953225;29;20115;-73
2021/12/25 09:53:12;;;;;;;9.52;4.50;;;8.20;99.90;;;;;;4968617;28;20050;-74
2021/12/25 09:55:38;;;;;;;10.07;4.55;;;8.30;99.90;;;;;;4952735;29;20031;-73
2021/12/25 09:58:05;;;;;;;8.60;4.28;;;8.30;99.90;;;;;;4952590;28;20058;-73
2021/12/25 10:00:33;;;;;;;11.27;4.30;;;8.30;99.90;;;;;;4953354;29;20098;-73
2021/12/25 10:02:59;;;;;;;8.25;3.88;;;8.30;99.90;;;;;;4952277;29;20039;-74
2021/12/25 10:05:41;;;;;;;7.85;3.75;;;8.40;99.90;;;;;;4949848;28;20042;-73
2021/12/25 10:08:26;;;;;;;6.50;3.22;;;8.40;99.90;;;;;;4952627;29;20484;-73
2021/12/25 10:11:00;;;;;;;6.93;3.38;;;8.40;99.90;;;;;;4952358;29;20028;-74
2021/12/25 10:13:41;;;;;;;6.90;3.58;;;8.40;99.90;;;;;;4953130;28;20050;-74
2021/12/25 10:16:27;;;;;;;8.05;3.17;;;8.40;99.90;;;;;;4952870;29;20103;-72
2021/12/25 10:19:13;;;;;;;6.78;3.10;;;8.40;99.90;;;;;;4951885;29;20027;-74
2021/12/25 10:21:39;;;;;;;8.48;3.25;;;8.40;99.90;;;;;;4952068;29;20055;-72
2021/12/25 10:24:09;;;;;;;9.23;3.50;;;8.40;99.90;;;;;;4953091;29;20039;-73
2021/12/25 10:26:37;;;;;;;6.57;3.08;;;8.40;99.90;;;;;;4951982;29;20031;-65
2021/12/25 10:29:35;;;;;;;10.68;4.10;;;8.40;99.90;;;;;;4953402;29;20031;-74
2021/12/25 10:32:18;;;;;;;6.80;3.13;;;8.40;99.90;;;;;;4906985;29;20051;-72
2021/12/25 10:34:44;;;;;;;7.28;3.40;;;8.40;99.90;;;;;;4952406;29;20038;-73
2021/12/25 10:37:12;;;;;;;8.50;3.60;;;8.40;99.90;;;;;;4950148;28;20028;-71
2021/12/25 10:39:39;;;;;;;8.80;3.95;;;8.40;99.90;;;;;;4947492;29;20035;-66
2021/12/25 10:42:12;;;;;;;8.65;3.60;;;8.50;99.90;;;;;;4949029;29;20543;-73
2021/12/25 10:44:50;;;;;;;8.13;3.30;;;8.40;99.90;;;;;;4967221;28;20130;-66
2021/12/25 10:47:20;;;;;;;10.60;4.15;;;8.40;99.90;;;;;;4952545;28;20412;-74
2021/12/25 10:49:48;;;;;;;7.97;3.88;;;8.50;99.90;;;;;;4951755;29;20094;-73
2021/12/25 10:52:26;;;;;;;8.93;4.10;;;8.40;99.90;;;;;;4952473;28;20031;-75
2021/12/25 10:55:05;;;;;;;8.50;4.18;;;8.40;99.90;;;;;;4950526;28;20055;-74
2021/12/25 10:57:51;;;;;;;9.55;4.30;;;8.40;99.90;;;;;;4951228;29;20042;-73
2021/12/25 11:00:21;;;;;;;10.98;4.47;;;8.40;99.90;;;;;;4952866;28;20584;-74
2021/12/25 11:02:49;;;;;;;9.52;4.22;;;8.40;99.90;;;;;;4951999;28;20030;-73
2021/12/25 11:05:23;;;;;;;12.07;5.28;;;8.40;99.90;;;;;;4952133;28;20054;-73
2021/12/25 11:08:14;;;;;;;15.95;4.93;;;8.40;99.90;;;;;;4950205;29;20479;-72
2021/12/25 11:10:49;;;;;;;8.57;4.18;;;8.40;99.90;;;;;;4951942;28;20034;-67
2021/12/25 11:13:20;;;;;;;9.15;4.15;;;8.40;99.90;;;;;;4944834;29;20035;-73
2021/12/25 11:15:47;;;;;;;12.65;4.65;;;8.40;99.90;;;;;;4966510;28;20046;-74
2021/12/25 11:18:15;;;;;;;10.10;4.63;;;8.40;99.90;;;;;;4951403;28;20027;-74
2021/12/25 11:20:43;;;;;;;10.52;4.45;;;8.40;99.90;;;;;;4950963;29;20557;-66
2021/12/25 11:23:11;;;;;;;10.10;4.88;;;8.40;99.90;;;;;;4942512;28;20058;-73
2021/12/25 11:25:39;;;;;;;8.07;3.90;;;8.40;99.90;;;;;;4938092;29;20083;-74
2021/12/25 11:28:09;;;;;;;9.15;3.53;;;8.40;99.90;;;;;;4934768;29;20498;-72
2021/12/25 11:30:41;;;;;;;9.55;3.75;;;8.30;99.90;;;;;;4929240;29;20069;-74
2021/12/25 11:33:07;;;;;;;8.93;3.50;;;8.40;99.90;;;;;;4931825;29;20042;-74
2021/12/25 11:35:34;;;;;;;6.80;3.35;;;8.40;99.90;;;;;;4932174;29;20023;-72
2021/12/25 11:38:01;;;;;;;5.25;3.10;;;8.30;99.90;;;;;;4931542;29;20034;-72
2021/12/25 11:40:30;;;;;;;8.70;3.70;;;8.30;99.90;;;;;;4932555;29;20034;-75
2021/12/25 11:42:59;;;;;;;6.88;3.55;;;8.30;99.90;;;;;;4931560;29;20036;-74
2021/12/25 11:45:33;;;;;;;5.80;2.85;;;8.30;99.90;;;;;;4922591;29;20126;-74
2021/12/25 11:48:11;;;;;;;6.78;3.67;;;8.30;99.90;;;;;;4931344;29;20472;-75
2021/12/25 11:50:41;;;;;;;15.05;5.40;;;8.30;99.90;;;;;;4931627;29;20059;-79
2021/12/25 11:53:24;;;;;;;11.48;4.53;;;8.30;99.90;;;;;;4932197;29;20540;-80
2021/12/25 11:58:52;;;;;;;9.10;4.63;;;8.30;99.90;;;;;;4931855;29;20034;-79
2021/12/25 12:01:36;;;;;;;10.98;4.95;;;8.30;99.90;;;;;;4932753;29;20028;-80
2021/12/25 12:04:11;;;;;;;6.88;3.97;;;8.30;99.90;;;;;;4946425;29;20031;-79
2021/12/25 12:06:46;;;;;;;8.43;3.72;;;8.30;99.90;;;;;;4949806;29;20388;-79
2021/12/25 12:09:32;;;;;;;7.72;4.15;;;8.30;99.90;;;;;;4943252;29;20094;-78
2021/12/25 12:12:04;;;;;;;9.40;3.97;;;8.20;99.90;;;;;;4924837;29;20053;-80
2021/12/25 12:14:31;;;;;;;10.40;4.72;;;8.20;99.90;;;;;;4934153;29;20110;-76
2021/12/25 12:17:03;;;;;;;8.43;4.25;;;8.30;99.90;;;;;;4932385;29;20024;-79
2021/12/25 12:19:32;;;;;;;12.48;4.47;;;8.30;99.90;;;;;;4931591;29;20035;-81
2021/12/25 12:21:59;;;;;;;9.90;4.10;;;8.30;99.90;;;;;;4935982;29;20500;-78
2021/12/25 12:26:59;;;;;;;9.80;4.88;;;8.30;99.90;;;;;;4950021;28;20042;-80
2021/12/25 12:29:43;;;;;;;10.38;5.18;;;8.30;99.90;;;;;;4950419;28;20043;-78
2021/12/25 12:32:18;;;;;;;10.30;4.85;;;8.20;99.90;;;;;;4949446;29;20039;-81
2021/12/25 12:34:44;;;;;;;10.10;4.78;;;8.30;99.90;;;;;;4949697;29;20035;-71
2021/12/25 12:37:19;;;;;;;11.50;5.47;;;8.30;99.90;;;;;;4950683;29;20035;-77
2021/12/25 12:39:54;;;;;;;10.55;5.15;;;8.30;99.90;;;;;;4939324;29;20042;-70
2021/12/25 12:42:47;;;;;;;11.57;5.85;;;8.30;99.90;;;;;;4951398;29;20031;-75
2021/12/25 12:45:23;;;;;;;10.60;5.15;;;8.20;99.90;;;;;;4951350;29;20126;-81
2021/12/25 12:48:14;;;;;;;12.90;5.78;;;8.30;99.90;;;;;;4948606;29;20039;-81
2021/12/25 12:50:43;;;;;;;12.85;5.68;;;8.30;99.90;;;;;;4951201;29;20118;-77
2021/12/25 12:53:09;;;;;;;15.20;5.57;;;8.40;99.90;;;;;;4949784;29;20034;-79
2021/12/25 12:55:37;;;;;;;15.00;6.10;;;8.30;99.90;;;;;;4949180;29;20039;-81
2021/12/25 12:58:26;;;;;;;13.00;5.95;;;8.40;99.90;;;;;;4949619;29;20514;-81
2021/12/25 13:00:58;;;;;;;13.30;6.25;;;8.40;99.90;;;;;;4941388;29;20473;-80
2021/12/25 13:03:26;;;;;;;13.85;5.78;;;8.40;99.90;;;;;;4950657;29;20435;-81
2021/12/25 13:06:03;;;;;;;14.65;6.50;;;8.30;99.90;;;;;;4949565;29;20102;-78
2021/12/25 13:08:32;;;;;;;14.73;6.18;;;8.30;99.90;;;;;;4950534;29;20058;-80
2021/12/25 13:11:09;;;;;;;12.23;6.20;;;8.30;99.90;;;;;;4949410;29;20035;-81
2021/12/25 13:13:41;;;;;;;17.55;6.80;;;8.30;99.90;;;;;;4950492;29;20047;-81
2021/12/25 13:16:14;;;;;;;14.48;6.28;;;8.30;99.90;;;;;;4950370;29;20030;-80
2021/12/25 13:18:48;;;;;;;10.38;4.70;;;8.30;99.90;;;;;;4950569;29;20490;-79
2021/12/25 13:21:16;;;;;;;10.57;5.47;;;8.30;99.90;;;;;;4950943;29;20035;-80
2021/12/25 13:23:55;;;;;;;13.65;5.20;;;8.30;99.90;;;;;;4950513;29;20142;-79
2021/12/25 13:26:31;;;;;;;12.68;5.13;;;8.30;99.90;;;;;;4936358;29;20448;-78
2021/12/25 13:28:57;;;;;;;12.25;5.10;;;8.30;99.90;;;;;;4949886;29;20042;-78
2021/12/25 13:31:26;;;;;;;15.80;5.82;;;8.20;99.90;;;;;;4951329;29;20093;-82
2021/12/25 13:33:59;;;;;;;11.35;4.80;;;8.20;99.90;;;;;;4947174;29;20074;-75
2021/12/25 13:36:33;;;;;;;12.30;5.72;;;8.10;99.90;;;;;;4950174;29;20042;-79
2021/12/25 13:38:58;;;;;;;14.30;6.00;;;8.10;99.90;;;;;;4949959;29;20027;-79
2021/12/25 13:41:38;;;;;;;13.63;5.63;;;8.10;99.90;;;;;;4951258;28;20365;-83
2021/12/25 13:44:27;;;;;;;12.68;6.07;;;8.10;99.90;;;;;;4953551;29;20027;-83
2021/12/25 13:47:21;;;;;;;11.27;5.28;;;8.10;99.90;;;;;;4953018;29;20058;-82
2021/12/25 13:49:49;;;;;;;15.30;5.90;;;8.10;99.90;;;;;;4952356;29;20039;-72
2021/12/25 13:52:20;;;;;;;14.05;6.05;;;8.10;99.90;;;;;;4953134;29;20041;-83
2021/12/25 13:55:19;;;;;;;14.18;5.75;;;8.10;99.90;;;;;;4953470;29;20102;-69
2021/12/25 13:58:17;;;;;;;12.07;5.85;;;8.10;99.90;;;;;;4949627;29;20046;-82
2021/12/25 14:00:49;;;;;;;11.88;5.75;;;8.20;99.90;;;;;;4937847;29;20058;-82
2021/12/25 14:03:19;;;;;;;11.98;5.70;;;8.10;99.90;;;;;;4953425;29;20110;-83
2021/12/25 14:05:48;;;;;;;10.52;5.10;;;8.10;99.90;;;;;;4953209;28;20141;-84
2021/12/25 14:08:14;;;;;;;8.95;4.95;;;8.10;99.90;;;;;;4953190;29;20027;-83
2021/12/25 14:10:43;;;;;;;8.23;4.05;;;8.00;99.90;;;;;;4953758;29;20041;-79
2021/12/25 14:13:20;;;;;;;7.88;4.30;;;8.00;99.90;;;;;;4953080;29;20037;-81
2021/12/25 14:15:51;;;;;;;8.50;4.68;;;8.00;99.90;;;;;;4951540;29;20031;-79